sensor_id;sensor_type;location;lat;lon;timestamp;temperature;humidity
12374;DHT22;6251;51.762;8.660;2022-11-20T05:07:57;-5.80;99.90
12374;DHT22;6251;51.762;8.660;2022-11-20T05:17:57;-5.90;99.90
12374;DHT22;6251;51.762;8.660;2022-11-20T05:27:58;-6.00;99.90
12374;DHT22;6251;51.762;8.660;2022-11-20T05:37:59;-5.80;99.90
12374;DHT22;6251;51.762;8.660;2022-11-20T05:48:00;-5.60;99.90
12374;DHT22;6251;51.762;8.660;2022-11-20T05:58:01;-5.50;99.90
12374;DHT22;6251;51.762;8.660;2022-11-20T06:08:01;-5.30;99.90
12374;DHT22;6251;51.762;8.660;2022-11-20T06:18:02;-5.10;99.90
12374;DHT22;6251;51.762;8.660;2022-11-20T06:28:02;-5.00;99.90
12374;DHT22;6251;51.762;8.660;2022-11-20T06:38:03;-4.90;99.90
12374;DHT22;6251;51.762;8.660;2022-11-20T06:48:04;-4.70;99.90
12374;DHT22;6251;51.762;8.660;2022-11-20T06:58:05;-4.60;99.90
12374;DHT22;6251;51.762;8.660;2022-11-20T07:08:05;-4.50;99.90
12374;DHT22;6251;51.762;8.660;2022-11-20T07:18:06;-4.40;99.90
12374;DHT22;6251;51.762;8.660;2022-11-20T07:28:07;-4.30;99.90
12374;DHT22;6251;51.762;8.660;2022-11-20T07:38:07;-4.10;99.90
12374;DHT22;6251;51.762;8.660;2022-11-20T07:48:08;-3.90;99.90
12374;DHT22;6251;51.762;8.660;2022-11-20T07:58:09;-3.70;99.90
12374;DHT22;6251;51.762;8.660;2022-11-20T08:08:09;-3.50;99.90
12374;DHT22;6251;51.762;8.660;2022-11-20T08:18:11;-3.30;99.90
12374;DHT22;6251;51.762;8.660;2022-11-20T08:28:11;-3.00;99.90
12374;DHT22;6251;51.762;8.660;2022-11-20T08:38:12;-2.60;99.90
12374;DHT22;6251;51.762;8.660;2022-11-20T08:48:13;-2.40;99.90
12374;DHT22;6251;51.762;8.660;2022-11-20T08:58:13;-2.10;99.90
12374;DHT22;6251;51.762;8.660;2022-11-20T09:08:14;-1.90;99.90
12374;DHT22;6251;51.762;8.660;2022-11-20T09:18:14;-1.70;99.90
12374;DHT22;6251;51.762;8.660;2022-11-20T09:28:15;-1.50;99.90
12374;DHT22;6251;51.762;8.660;2022-11-20T09:38:17;-1.50;99.90
12374;DHT22;6251;51.762;8.660;2022-11-20T09:58:44;-1.60;99.90
12374;DHT22;6251;51.762;8.660;2022-11-20T10:08:53;-1.50;99.90
12374;DHT22;6251;51.762;8.660;2022-11-20T10:29:16;-1.30;99.90
12374;DHT22;6251;51.762;8.660;2022-11-20T10:49:20;-0.90;99.90
12374;DHT22;6251;51.762;8.660;2022-11-20T10:59:51;-0.70;99.90
12374;DHT22;6251;51.762;8.660;2022-11-20T11:09:56;-0.40;99.90
12374;DHT22;6251;51.762;8.660;2022-11-20T11:20:06;-0.30;99.90
12374;DHT22;6251;51.762;8.660;2022-11-20T11:30:17;-0.20;99.90
12374;DHT22;6251;51.762;8.660;2022-11-20T11:40:18;-0.20;99.90
12374;DHT22;6251;51.762;8.660;2022-11-20T11:50:22;-0.10;99.90
12374;DHT22;6251;51.762;8.660;2022-11-20T12:00:23;0.00;99.90
12374;DHT22;6251;51.762;8.660;2022-11-20T12:20:35;0.10;99.90
12374;DHT22;6251;51.762;8.660;2022-11-20T12:51:31;0.60;99.90
12374;DHT22;6251;51.762;8.660;2022-11-20T13:01:40;0.60;99.90
12374;DHT22;6251;51.762;8.660;2022-11-20T13:11:45;0.60;99.90
12374;DHT22;6251;51.762;8.660;2022-11-20T13:21:49;0.60;99.90
12374;DHT22;6251;51.762;8.660;2022-11-20T13:31:50;0.70;99.90
12374;DHT22;6251;51.762;8.660;2022-11-20T13:41:56;0.80;99.90
12374;DHT22;6251;51.762;8.660;2022-11-20T14:02:30;0.80;99.90
12374;DHT22;6251;51.762;8.660;2022-11-20T14:12:33;0.50;99.90
12374;DHT22;6251;51.762;8.660;2022-11-20T14:22:34;0.40;99.90
12374;DHT22;6251;51.762;8.660;2022-11-20T14:32:35;0.30;99.90
12374;DHT22;6251;51.762;8.660;2022-11-20T14:42:36;0.30;99.90
12374;DHT22;6251;51.762;8.660;2022-11-20T14:52:37;0.40;99.90
12374;DHT22;6251;51.762;8.660;2022-11-20T15:02:42;0.40;99.90
12374;DHT22;6251;51.762;8.660;2022-11-20T15:22:48;0.60;99.90
12374;DHT22;6251;51.762;8.660;2022-11-20T15:32:49;0.70;99.90
12374;DHT22;6251;51.762;8.660;2022-11-20T15:42:49;0.80;99.90
12374;DHT22;6251;51.762;8.660;2022-11-20T15:53:07;0.90;99.90
12374;DHT22;6251;51.762;8.660;2022-11-20T16:03:11;0.90;99.90
12374;DHT22;6251;51.762;8.660;2022-11-20T16:13:14;1.00;99.90
12374;DHT22;6251;51.762;8.660;2022-11-20T16:23:34;1.00;99.90
12374;DHT22;6251;51.762;8.660;2022-11-20T16:33:34;0.90;99.90
12374;DHT22;6251;51.762;8.660;2022-11-20T16:43:35;0.90;99.90
12374;DHT22;6251;51.762;8.660;2022-11-20T16:53:35;1.00;99.90
12374;DHT22;6251;51.762;8.660;2022-11-20T17:03:37;0.90;99.90
12374;DHT22;6251;51.762;8.660;2022-11-20T17:13:38;0.90;99.90
12374;DHT22;6251;51.762;8.660;2022-11-20T17:23:41;1.00;99.90
12374;DHT22;6251;51.762;8.660;2022-11-20T17:33:45;1.10;99.90
12374;DHT22;6251;51.762;8.660;2022-11-20T17:43:47;1.20;99.90
12374;DHT22;6251;51.762;8.660;2022-11-20T17:53:50;1.20;99.90
12374;DHT22;6251;51.762;8.660;2022-11-20T18:03:51;1.20;99.90
12374;DHT22;6251;51.762;8.660;2022-11-20T18:13:54;1.20;99.90
12374;DHT22;6251;51.762;8.660;2022-11-20T18:24:14;1.10;99.90
12374;DHT22;6251;51.762;8.660;2022-11-20T18:34:15;1.00;99.90
12374;DHT22;6251;51.762;8.660;2022-11-20T18:44:24;0.90;99.90
12374;DHT22;6251;51.762;8.660;2022-11-20T18:54:43;0.90;99.90
12374;DHT22;6251;51.762;8.660;2022-11-20T19:04:44;0.80;99.90
12374;DHT22;6251;51.762;8.660;2022-11-20T19:14:45;0.80;99.90
12374;DHT22;6251;51.762;8.660;2022-11-20T19:24:46;0.80;99.90
12374;DHT22;6251;51.762;8.660;2022-11-20T19:34:46;0.80;99.90
12374;DHT22;6251;51.762;8.660;2022-11-20T19:44:47;0.80;99.90
12374;DHT22;6251;51.762;8.660;2022-11-20T19:54:47;0.80;99.90
12374;DHT22;6251;51.762;8.660;2022-11-20T20:04:48;0.80;99.90
12374;DHT22;6251;51.762;8.660;2022-11-20T20:14:48;0.90;99.90
12374;DHT22;6251;51.762;8.660;2022-11-20T20:24:49;0.90;99.90
12374;DHT22;6251;51.762;8.660;2022-11-20T20:34:51;0.90;99.90
12374;DHT22;6251;51.762;8.660;2022-11-20T20:44:52;0.90;99.90
12374;DHT22;6251;51.762;8.660;2022-11-20T20:55:08;0.90;99.90
12374;DHT22;6251;51.762;8.660;2022-11-20T21:05:09;0.90;99.90
12374;DHT22;6251;51.762;8.660;2022-11-20T21:15:10;1.00;99.90
12374;DHT22;6251;51.762;8.660;2022-11-20T21:25:22;1.00;99.90
12374;DHT22;6251;51.762;8.660;2022-11-20T21:35:23;1.00;99.90
12374;DHT22;6251;51.762;8.660;2022-11-20T21:45:23;1.00;99.90
12374;DHT22;6251;51.762;8.660;2022-11-20T21:55:24;1.00;99.90
12374;DHT22;6251;51.762;8.660;2022-11-20T22:05:24;1.00;99.90
